createdAt,value
2019-02-11T00:02:01.794Z,98693.91
2019-02-11T00:06:06.006Z,98675.22
2019-02-11T00:10:10.227Z,98697.04
2019-02-11T00:14:14.783Z,98707.52
2019-02-11T00:18:19.115Z,98711.00
2019-02-11T00:22:23.405Z,98703.64
2019-02-11T00:26:27.653Z,98712.35
2019-02-11T00:30:31.874Z,98718.02
2019-02-11T00:34:36.454Z,98706.72
2019-02-11T00:38:40.654Z,98683.17
2019-02-11T00:42:44.881Z,98677.09
2019-02-11T00:46:49.091Z,98674.47
2019-02-11T00:50:53.309Z,98664.88
2019-02-11T00:54:58.909Z,98687.11
2019-02-11T00:59:03.085Z,98673.59
2019-02-11T01:03:07.369Z,98656.59
2019-02-11T01:07:11.896Z,98677.50
2019-02-11T01:11:16.423Z,98683.61
2019-02-11T01:15:20.654Z,98675.31
2019-02-11T01:19:24.867Z,98685.78
2019-02-11T01:23:29.142Z,98680.55
2019-02-11T01:27:33.349Z,98686.67
2019-02-11T01:31:37.566Z,98670.52
2019-02-11T01:35:42.067Z,98670.11
2019-02-11T01:39:46.355Z,98670.97
2019-02-11T01:43:50.598Z,98681.45
2019-02-11T01:47:55.174Z,98667.05
2019-02-11T01:51:59.429Z,98660.52
2019-02-11T01:56:04.046Z,98652.63
2019-02-11T02:00:11.643Z,98641.75
2019-02-11T02:04:15.863Z,98633.01
2019-02-11T02:08:20.177Z,98634.32
2019-02-11T02:12:24.644Z,98635.19
2019-02-11T02:16:28.871Z,98612.49
2019-02-11T02:20:33.095Z,98616.86
2019-02-11T02:24:37.284Z,98606.84
2019-02-11T02:28:41.793Z,98630.81
2019-02-11T02:32:45.993Z,98628.20
2019-02-11T02:36:50.595Z,98639.11
2019-02-11T02:40:54.914Z,98606.39
2019-02-11T02:44:59.105Z,98612.49
2019-02-11T02:49:03.334Z,98608.12
2019-02-11T02:53:07.566Z,98612.05
2019-02-11T02:57:11.862Z,98602.47
2019-02-11T03:01:16.049Z,98602.02
2019-02-11T03:05:20.263Z,98593.31
2019-02-11T03:09:24.452Z,98604.64
2019-02-11T03:13:28.766Z,98600.71
2019-02-11T03:17:32.952Z,98616.83
2019-02-11T03:21:37.185Z,98637.77
2019-02-11T03:25:41.447Z,98646.48
2019-02-11T03:29:45.674Z,98646.07
2019-02-11T03:33:52.010Z,98646.48
2019-02-11T03:37:56.356Z,98646.04
2019-02-11T03:42:01.439Z,98657.82
2019-02-11T03:46:05.710Z,98661.78
2019-02-11T03:50:10.753Z,98670.94
2019-02-11T03:54:14.995Z,98671.39
2019-02-11T03:58:19.671Z,98701.45
2019-02-11T04:02:24.059Z,98714.58
2019-02-11T04:06:28.466Z,98714.98
2019-02-11T04:10:34.116Z,98704.96
2019-02-11T04:14:38.578Z,98704.96
2019-02-11T04:18:43.261Z,98690.15
2019-02-11T04:22:48.290Z,98659.60
2019-02-11T04:26:52.782Z,98662.22
2019-02-11T04:30:57.249Z,98670.06
2019-02-11T04:35:03.250Z,98673.13
2019-02-11T04:39:08.123Z,98678.81
2019-02-11T04:43:20.356Z,98692.34
2019-02-11T04:47:24.627Z,98681.00
2019-02-11T04:51:29.099Z,98684.92
2019-02-11T04:55:33.552Z,98685.78
2019-02-11T04:59:38.019Z,98693.19
2019-02-11T05:03:42.356Z,98702.79
2019-02-11T05:07:46.906Z,98704.55
2019-02-11T05:11:51.597Z,98715.02
2019-02-11T05:15:56.006Z,98710.22
2019-02-11T05:20:00.598Z,98719.37
2019-02-11T05:24:04.988Z,98723.73
2019-02-11T05:28:09.774Z,98737.67
2019-02-11T05:32:14.399Z,98744.66
2019-02-11T05:36:18.851Z,98756.02
2019-02-11T05:40:23.257Z,98759.04
2019-02-11T05:44:27.751Z,98760.79
2019-02-11T05:48:32.329Z,98770.83
2019-02-11T05:52:36.704Z,98786.08
2019-02-11T05:56:41.199Z,98786.52
2019-02-11T06:00:45.542Z,98788.27
2019-02-11T06:04:50.423Z,98781.72
2019-02-11T06:08:54.975Z,98756.42
2019-02-11T06:12:59.317Z,98734.63
2019-02-11T06:17:04.006Z,98739.86
2019-02-11T06:21:10.176Z,98725.05
2019-02-11T06:25:16.320Z,98743.77
2019-02-11T06:29:21.100Z,98743.79
2019-02-11T06:33:30.951Z,98763.81
2019-02-11T06:37:35.665Z,98774.72
2019-02-11T06:41:41.066Z,98779.10
2019-02-11T06:45:46.850Z,98785.63
2019-02-11T06:49:52.831Z,98797.40
2019-02-11T06:53:57.270Z,98795.20
2019-02-11T06:58:02.258Z,98786.94
2019-02-11T07:02:06.677Z,98774.30
2019-02-11T07:06:16.714Z,98785.62
2019-02-11T07:10:21.299Z,98800.43
2019-02-11T07:14:28.806Z,98804.80
2019-02-11T07:18:40.833Z,98792.61
2019-02-11T07:22:45.449Z,98797.41
2019-02-11T07:26:50.587Z,98815.25
2019-02-11T07:30:55.341Z,98842.73
2019-02-11T07:35:00.030Z,98839.27
2019-02-11T07:39:10.081Z,98862.78
2019-02-11T07:43:39.279Z,98868.92
2019-02-11T07:47:44.206Z,98884.61
2019-02-11T07:51:48.913Z,98892.89
2019-02-11T07:55:53.680Z,98902.50
2019-02-11T07:59:58.357Z,98909.48
2019-02-11T08:04:02.894Z,98910.35
2019-02-11T08:08:07.657Z,98917.36
2019-02-11T08:12:13.754Z,98926.52
2019-02-11T08:16:21.314Z,98923.47
2019-02-11T08:20:27.165Z,98928.27
2019-02-11T08:24:33.418Z,98948.34
2019-02-11T08:28:41.342Z,98945.75
2019-02-11T08:32:46.419Z,98944.86
2019-02-11T08:37:05.745Z,98946.63
2019-02-11T08:41:12.140Z,98961.90
2019-02-11T08:45:17.490Z,98948.81
2019-02-11T08:49:23.673Z,98961.47
2019-02-11T08:53:28.619Z,98971.48
2019-02-11T08:57:33.537Z,98974.95
2019-02-11T09:01:38.648Z,98986.76
2019-02-11T09:05:46.354Z,99005.48
2019-02-11T09:09:52.989Z,99011.16
2019-02-11T09:14:12.827Z,99021.62
2019-02-11T09:18:20.776Z,99016.83
2019-02-11T09:22:25.612Z,99024.70
2019-02-11T09:26:33.329Z,99021.19
2019-02-11T09:30:45.542Z,99018.59
2019-02-11T09:34:50.742Z,99024.73
2019-02-11T09:39:01.432Z,99036.11
2019-02-11T09:43:16.987Z,99028.27
2019-02-11T09:47:25.609Z,99036.59
2019-02-11T09:51:30.914Z,99050.13
2019-02-11T09:55:40.046Z,99057.54
2019-02-11T09:59:45.402Z,99073.25
2019-02-11T10:04:07.747Z,99077.59
2019-02-11T10:12:31.780Z,99091.58
2019-02-11T10:16:43.597Z,99097.28
2019-02-11T10:21:23.377Z,99101.63
2019-02-11T10:25:29.506Z,99120.83
2019-02-11T10:29:33.691Z,99107.28
2019-02-11T10:33:37.933Z,99114.70
2019-02-11T10:37:42.160Z,99110.80
2019-02-11T10:41:46.377Z,99114.77
2019-02-11T10:45:50.605Z,99129.63
2019-02-11T10:49:54.824Z,99124.84
2019-02-11T10:53:59.322Z,99137.95
2019-02-11T10:58:03.542Z,99132.30
2019-02-11T11:02:07.780Z,99139.32
2019-02-11T11:06:12.014Z,99146.77
2019-02-11T11:10:21.791Z,99143.70
2019-02-11T11:14:25.995Z,99143.28
2019-02-11T11:22:32.574Z,99148.09
2019-02-11T11:26:36.751Z,99152.02
2019-02-11T11:30:41.168Z,99159.00
2019-02-11T11:34:45.401Z,99168.17
2019-02-11T11:38:49.619Z,99166.92
2019-02-11T11:42:53.816Z,99166.09
2019-02-11T11:46:58.416Z,99171.30
2019-02-11T11:51:03.332Z,99190.94
2019-02-11T11:55:09.561Z,99192.22
2019-02-11T11:59:13.833Z,99189.14
2019-02-11T12:03:18.165Z,99200.05
2019-02-11T12:07:22.475Z,99218.84
2019-02-11T12:11:27.343Z,99223.70
2019-02-11T12:15:31.557Z,99226.27
2019-02-11T12:19:35.865Z,99251.61
2019-02-11T12:23:40.056Z,99254.27
2019-02-11T12:27:44.405Z,99266.94
2019-02-11T12:31:48.653Z,99270.92
2019-02-11T12:35:53.044Z,99279.22
2019-02-11T12:39:57.277Z,99266.61
2019-02-11T12:44:01.560Z,99263.60
2019-02-11T12:48:05.846Z,99260.52
2019-02-11T12:52:10.230Z,99250.48
2019-02-11T12:56:14.766Z,99272.73
2019-02-11T13:00:21.154Z,99263.51
2019-02-11T13:04:25.397Z,99269.56
2019-02-11T13:08:29.665Z,99269.58
2019-02-11T13:12:33.866Z,99290.53
2019-02-11T13:16:38.190Z,99297.98
2019-02-11T13:20:42.463Z,99305.45
2019-02-11T13:24:47.112Z,99314.70
2019-02-11T13:28:51.339Z,99322.58
2019-02-11T13:32:55.687Z,99319.12
2019-02-11T13:37:00.392Z,99337.48
2019-02-11T13:41:04.689Z,99326.56
2019-02-11T13:45:12.749Z,99342.74
2019-02-11T13:49:17.620Z,99354.48
2019-02-11T13:53:22.200Z,99355.34
2019-02-11T13:57:26.630Z,99346.15
2019-02-11T14:01:30.950Z,99357.88
2019-02-11T14:05:35.302Z,99378.83
2019-02-11T14:09:39.542Z,99375.72
2019-02-11T14:14:00.577Z,99383.93
2019-02-11T14:18:09.551Z,99387.84
2019-02-11T14:21:56.535Z,99386.98
2019-02-11T14:26:01.033Z,99397.88
2019-02-11T14:30:05.637Z,99401.84
2019-02-11T14:34:10.986Z,99413.21
2019-02-11T14:38:15.494Z,99421.06
2019-02-11T14:42:19.848Z,99438.50
2019-02-11T14:46:24.163Z,99429.69
2019-02-11T14:50:28.389Z,99430.56
2019-02-11T14:54:33.030Z,99445.34
2019-02-11T14:58:37.277Z,99422.20
2019-02-11T15:02:41.492Z,99434.40
2019-02-11T15:06:45.710Z,99435.67
2019-02-11T15:10:49.945Z,99446.15
2019-02-11T15:14:54.160Z,99450.47
2019-02-11T15:18:58.727Z,99459.20
2019-02-11T15:23:02.937Z,99464.38
2019-02-11T15:27:07.255Z,99465.63
2019-02-11T15:31:11.458Z,99463.80
2019-02-11T15:35:15.923Z,99473.36
2019-02-11T15:39:20.387Z,99479.82
2019-02-11T15:43:24.595Z,99500.30
2019-02-11T15:47:28.816Z,99501.60
2019-02-11T15:51:33.993Z,99512.05
2019-02-11T15:55:38.221Z,99512.50
2019-02-11T15:59:42.423Z,99520.81
2019-02-11T16:03:46.643Z,99522.08
2019-02-11T16:07:50.919Z,99527.62
2019-02-11T16:11:55.736Z,99539.33
2019-02-11T16:16:00.014Z,99545.80
2019-02-11T16:20:04.277Z,99564.91
2019-02-11T16:24:08.487Z,99574.54
2019-02-11T16:28:12.704Z,99572.77
2019-02-11T16:32:17.341Z,99574.13
2019-02-11T16:36:21.536Z,99591.12
2019-02-11T16:40:27.078Z,99611.17
2019-02-11T16:44:31.298Z,99608.54
2019-02-11T16:48:35.588Z,99620.67
2019-02-11T16:52:39.908Z,99634.55
2019-02-11T16:56:44.521Z,99642.75
2019-02-11T17:00:48.775Z,99657.22
2019-02-11T17:04:53.298Z,99663.67
2019-02-11T17:08:57.884Z,99680.66
2019-02-11T17:13:02.099Z,99698.84
2019-02-11T17:17:06.342Z,99677.86
2019-02-11T17:21:10.503Z,99681.76
2019-02-11T17:25:14.950Z,99680.83
2019-02-11T17:29:19.385Z,99711.77
2019-02-11T17:33:24.031Z,99716.11
2019-02-11T17:37:28.218Z,99725.66
2019-02-11T17:41:32.412Z,99728.31
2019-02-11T17:45:36.719Z,99737.06
2019-02-11T17:49:40.891Z,99745.80
2019-02-11T17:53:45.130Z,99749.70
2019-02-11T17:57:49.401Z,99763.17
2019-02-11T18:01:54.913Z,99768.84
2019-02-11T18:06:00.790Z,99769.19
2019-02-11T18:10:05.939Z,99781.39
2019-02-11T18:14:10.184Z,99770.09
2019-02-11T18:18:14.471Z,99764.86
2019-02-11T18:22:19.187Z,99771.83
2019-02-11T18:26:23.466Z,99780.08
2019-02-11T18:30:27.678Z,99793.13
2019-02-11T18:34:32.069Z,99795.23
2019-02-11T18:38:36.292Z,99808.27
2019-02-11T18:42:40.507Z,99815.62
2019-02-11T18:46:44.780Z,99822.12
2019-02-11T18:50:49.022Z,99819.94
2019-02-11T18:54:53.507Z,99821.24
2019-02-11T18:58:58.081Z,99820.27
2019-02-11T19:03:02.411Z,99816.34
2019-02-11T19:07:07.089Z,99826.37
2019-02-11T19:15:15.181Z,99838.97
2019-02-11T19:19:19.498Z,99851.53
2019-02-11T19:23:24.040Z,99847.86
2019-02-11T19:27:28.280Z,99862.09
2019-02-11T19:31:32.543Z,99873.73
2019-02-11T19:35:37.207Z,99882.25
2019-02-11T19:39:41.469Z,99893.92
2019-02-11T19:43:45.892Z,99902.08
2019-02-11T19:47:50.134Z,99913.27
2019-02-11T19:51:54.327Z,99920.55
2019-02-11T19:55:58.586Z,99926.17
2019-02-11T20:00:03.017Z,99923.13
2019-02-11T20:04:08.008Z,99917.91
2019-02-11T20:08:12.581Z,99927.56
2019-02-11T20:12:16.805Z,99936.70
2019-02-11T20:21:24.216Z,99931.95
2019-02-11T20:25:28.559Z,99937.62
2019-02-11T20:29:32.821Z,99948.06
2019-02-11T20:33:37.098Z,99957.69
2019-02-11T20:37:41.589Z,99980.28
2019-02-11T20:41:45.845Z,99991.56
2019-02-11T20:45:50.175Z,100010.68
2019-02-11T20:49:54.516Z,100022.44
2019-02-11T20:53:58.730Z,100019.16
2019-02-11T20:58:02.950Z,100025.91
2019-02-11T21:02:07.619Z,100022.94
2019-02-11T21:06:11.835Z,100033.43
2019-02-11T21:10:17.221Z,100032.44
2019-02-11T21:14:21.444Z,100041.58
2019-02-11T21:18:25.669Z,100053.33
2019-02-11T21:22:30.295Z,100055.84
2019-02-11T21:26:34.528Z,100051.41
2019-02-11T21:30:38.740Z,100057.02
2019-02-11T21:34:42.973Z,100058.27
2019-02-11T21:38:47.243Z,100060.39
2019-02-11T21:42:51.471Z,100056.34
2019-02-11T21:46:55.684Z,100069.25
2019-02-11T21:50:59.904Z,100068.62
2019-02-11T21:55:04.124Z,100073.68
2019-02-11T21:59:08.300Z,100069.19
2019-02-11T22:03:12.555Z,100080.49
2019-02-11T22:07:16.807Z,100079.56
2019-02-11T22:11:21.027Z,100089.48
2019-02-11T22:15:26.596Z,100082.91
2019-02-11T22:19:30.808Z,100085.42
2019-02-11T22:23:35.032Z,100099.61
2019-02-11T22:27:39.232Z,100109.52
2019-02-11T22:31:43.452Z,100122.89
2019-02-11T22:35:47.708Z,100116.19
2019-02-11T22:39:51.888Z,100122.61
2019-02-11T22:43:56.135Z,100134.25
2019-02-11T22:48:00.360Z,100143.81
2019-02-11T22:52:04.544Z,100148.49
2019-02-11T22:56:08.762Z,100161.46
2019-02-11T23:00:39.977Z,100163.21
2019-02-11T23:04:44.225Z,100162.77
2019-02-11T23:08:48.401Z,100178.79
2019-02-11T23:12:52.618Z,100165.64
2019-02-11T23:16:56.827Z,100174.77
2019-02-11T23:21:02.033Z,100182.06
2019-02-11T23:25:06.231Z,100186.88
2019-02-11T23:29:10.445Z,100190.73
2019-02-11T23:33:14.666Z,100207.31
2019-02-11T23:37:18.872Z,100207.38
2019-02-11T23:41:23.082Z,100194.28
2019-02-11T23:45:27.250Z,100202.92
2019-02-11T23:49:31.463Z,100206.23
2019-02-11T23:53:35.629Z,100203.56
2019-02-11T23:57:39.873Z,100205.23
